Prevelis — SYDL — position and weather

sailwx.info

Track history (hours):
 
Tides and Currents Weather Stations Pressure Air Temp Water Temp Dewpoint Dewpoint Depression Visibility Wind Speed Wind Dir Waves Ship Positions

Prevelis

Last reported at 2014-Nov-20 22:31 UTC. Time now 2014-Nov-20 22:54 UTC.
Position N 36°45' E 024°24'.

Length 143 m; draft 5.5 m.

Type: Passenger vessel. MMSI: 239297000.

Date/timePositionNaut miles runAvg speedWind from/ knotsBaromVisibWave heightAir tempDewpointWater temp
2014-Nov-20 22:31N 36°45' E 024°24'6 5.7
2014-Nov-20 21:29N 36°47' E 024°31'1717.9
2014-Nov-20 20:33N 36°38' E 024°48'1717.5
2014-Nov-20 19:34N 36°28' E 025°07'1615.8
2014-Nov-20 18:34N 36°23' E 025°25'2 1.7
2014-Nov-20 17:33N 36°23' E 025°23'1211.6
2014-Nov-20 16:33N 36°19' E 025°37'9 9.2
2014-Nov-20 15:33N 36°16' E 025°48'1717.1
2014-Nov-20 14:33N 36°04' E 026°02'6 0.2
2014-Nov-19 08:27N 36°01' E 026°08'1617.7
2014-Nov-19 07:33N 36°11' E 025°54'1312.7
2014-Nov-19 06:34N 36°21' E 025°43'1716.9
2014-Nov-19 05:33N 36°20' E 025°22'4 4.2
2014-Nov-19 04:33N 36°23' E 025°26'1110.6
2014-Nov-19 03:33N 36°25' E 025°13'1818.0
2014-Nov-19 02:33N 36°34' E 024°54'1717.3
2014-Nov-19 01:33N 36°44' E 024°36'7 7.2
2014-Nov-19 00:33N 36°43' E 024°27'1110.7
2014-Nov-18 23:33N 36°52' E 024°18'1717.3
2014-Nov-18 22:33N 37°06' E 024°07'2017.3
2014-Nov-18 21:26N 37°23' E 023°55'1917.0
2014-Nov-18 20:19N 37°40' E 023°43'1316.9
2014-Nov-18 19:33N 37°52' E 023°37'5 5.3
2014-Nov-18 18:33N 37°57' E 023°38'0 0.0
2014-Nov-18 17:33N 37°57' E 023°38'0 0.0
2014-Nov-18 16:33N 37°57' E 023°38'0 0.0
2014-Nov-18 15:33N 37°57' E 023°38'0 0.0
2014-Nov-18 14:33N 37°57' E 023°38'0 0.0
2014-Nov-18 13:33N 37°57' E 023°38'0 0.0
2014-Nov-18 12:33N 37°57' E 023°38'0 0.0
2014-Nov-18 11:33N 37°57' E 023°38'0 0.0
2014-Nov-18 10:33N 37°57' E 023°38'0 0.0
2014-Nov-18 09:33N 37°57' E 023°38'0 0.0
2014-Nov-18 08:33N 37°57' E 023°38'0 0.0
2014-Nov-18 07:33N 37°57' E 023°38'0 0.0
2014-Nov-18 06:33N 37°57' E 023°38'0 0.0
2014-Nov-18 05:33N 37°57' E 023°38'0 0.0
2014-Nov-18 04:33N 37°57' E 023°38'0 0.0
2014-Nov-18 03:33N 37°57' E 023°38'0 0.0
2014-Nov-18 02:33N 37°57' E 023°38'0 0.0
2014-Nov-18 01:33N 37°57' E 023°38'0 0.0
2014-Nov-18 00:33N 37°57' E 023°38'0 0.0
2014-Nov-17 23:33N 37°57' E 023°38'0 0.0
2014-Nov-17 22:33N 37°57' E 023°38'0 0.0
2014-Nov-17 21:33N 37°57' E 023°38'0 0.0
2014-Nov-17 20:33N 37°57' E 023°38'0 0.0
2014-Nov-17 19:33N 37°57' E 023°38'0 0.0
2014-Nov-17 18:33N 37°57' E 023°38'0 0.0
2014-Nov-17 17:33N 37°57' E 023°38'0 0.0
2014-Nov-17 16:33N 37°57' E 023°38'0 0.0
2014-Nov-17 15:33N 37°57' E 023°38'0 0.0
2014-Nov-17 14:33N 37°57' E 023°38'0 0.0
2014-Nov-17 13:33N 37°57' E 023°38'0 0.0
2014-Nov-17 12:33N 37°57' E 023°38'0 0.0
2014-Nov-17 11:33N 37°57' E 023°38'0 0.0
2014-Nov-17 10:33N 37°57' E 023°38'0 0.0
2014-Nov-17 09:33N 37°57' E 023°38'0 0.0
2014-Nov-17 08:33N 37°57' E 023°38'5 4.7
2014-Nov-17 07:34N 37°52' E 023°39'2318.2
2014-Nov-17 06:16N 37°31' E 023°52'3117.9
2014-Nov-17 04:31N 37°04' E 024°11'1718.1
2014-Nov-17 03:33N 36°48' E 024°21'4 3.8
2014-Nov-17 02:33N 36°45' E 024°24'1515.3
2014-Nov-17 01:33N 36°41' E 024°42'1817.8
2014-Nov-17 00:33N 36°31' E 025°00'1717.4
2014-Nov-16 23:33N 36°22' E 025°19'5 5.3
2014-Nov-16 22:33N 36°23' E 025°26'5 4.9
2014-Nov-16 21:33N 36°18' E 025°27'1515.3
2014-Nov-16 20:33N 36°21' E 025°46'1514.8
2014-Nov-16 19:33N 36°07' E 025°38'1717.3
2014-Nov-16 18:33N 35°51' E 025°30'1817.5
2014-Nov-16 17:33N 35°35' E 025°21'16 6.9
2014-Nov-16 15:13N 35°21' E 025°11'26 0.9
2014-Nov-15 10:23N 35°22' E 025°44'24 5.8
2014-Nov-15 06:11N 35°40' E 025°23'1118.0
2014-Nov-15 05:33N 35°50' E 025°29'1818.2
2014-Nov-15 04:33N 36°07' E 025°38'1514.8
2014-Nov-15 03:32N 36°21' E 025°46'1514.9
2014-Nov-15 02:33N 36°19' E 025°28'5 4.6
2014-Nov-15 01:33N 36°23' E 025°26'7 6.6
2014-Nov-15 00:33N 36°23' E 025°18'1818.2
2014-Nov-14 23:33N 36°32' E 024°58'1817.8
2014-Nov-14 22:33N 36°42' E 024°40'1110.9
2014-Nov-14 21:30N 36°43' E 024°25'7 7.1
2014-Nov-14 20:34N 36°49' E 024°21'1817.6
2014-Nov-14 19:33N 37°04' E 024°09'4117.9
2014-Nov-14 17:17N 37°39' E 023°43'1317.5
2014-Nov-14 16:34N 37°51' E 023°37'6 6.2
2014-Nov-14 15:33N 37°57' E 023°38'0 0.0
2014-Nov-14 14:33N 37°57' E 023°38'0 0.0
2014-Nov-14 12:33N 37°57' E 023°38'0 0.0
2014-Nov-14 11:33N 37°57' E 023°38'0 0.0
2014-Nov-14 10:33N 37°57' E 023°38'0 0.0
2014-Nov-14 09:33N 37°57' E 023°38'0 0.0
2014-Nov-14 08:33N 37°57' E 023°38'0 0.0
2014-Nov-14 07:33N 37°57' E 023°38'0 0.0
2014-Nov-14 06:33N 37°57' E 023°38'0 0.0
2014-Nov-14 05:19N 37°57' E 023°38'0 0.0
2014-Nov-14 04:33N 37°57' E 023°38'0 0.2
2014-Nov-14 03:33N 37°57' E 023°38'1414.3
2014-Nov-14 02:33N 37°43' E 023°44'5217.3
2014-Nov-13 23:33N 36°57' E 024°15'1717.0
2014-Nov-13 22:32N 36°43' E 024°26'5 5.1
2014-Nov-13 21:31N 36°47' E 024°31'1717.4
2014-Nov-13 20:32N 36°37' E 024°49'1617.0
2014-Nov-13 19:34N 36°29' E 025°06'1616.0
2014-Nov-13 18:34N 36°23' E 025°25'2 2.3
2014-Nov-13 17:33N 36°23' E 025°22'1313.4
2014-Nov-13 16:33N 36°20' E 025°38'6 6.3
2014-Nov-13 15:33N 36°20' E 025°46'1817.6
2014-Nov-13 14:33N 36°07' E 026°00'1817.9
2014-Nov-13 13:33N 35°54' E 026°16'51 9.8
2014-Nov-13 08:20N 35°33' E 027°14'72 2.9
2014-Nov-12 07:33N 36°09' E 025°57'1514.5
2014-Nov-12 06:32N 36°21' E 025°46'1616.5
2014-Nov-12 05:33N 36°19' E 025°26'4 4.4
2014-Nov-12 04:33N 36°23' E 025°26'7 7.0
2014-Nov-12 03:33N 36°23' E 025°17'1817.8
2014-Nov-12 02:33N 36°33' E 024°58'1717.5
2014-Nov-12 01:33N 36°42' E 024°39'1211.1
2014-Nov-12 00:31N 36°43' E 024°25'8 8.5
2014-Nov-11 23:33N 36°50' E 024°20'1717.4
2014-Nov-11 22:33N 37°05' E 024°08'3617.6
2014-Nov-11 20:30N 37°37' E 023°46'1617.3
2014-Nov-11 19:33N 37°51' E 023°37'6 5.7
2014-Nov-11 18:33N 37°57' E 023°38'0 0.0
2014-Nov-11 17:33N 37°57' E 023°38'0 0.0
2014-Nov-11 16:33N 37°57' E 023°38'0 0.0
2014-Nov-11 15:33N 37°57' E 023°38'0 0.0
2014-Nov-11 14:33N 37°57' E 023°38'0 0.0
2014-Nov-11 13:33N 37°57' E 023°38'0 0.0
2014-Nov-11 12:33N 37°57' E 023°38'0 0.0
2014-Nov-11 11:33N 37°57' E 023°38'0 0.0
2014-Nov-11 10:33N 37°57' E 023°38'0 0.0
2014-Nov-11 09:33N 37°57' E 023°38'0 0.0
2014-Nov-11 08:33N 37°57' E 023°38'0 0.0
2014-Nov-11 07:33N 37°57' E 023°38'0 0.0
2014-Nov-11 06:33N 37°57' E 023°38'0 0.0
2014-Nov-11 05:32N 37°57' E 023°38'0 0.0
2014-Nov-11 04:33N 37°57' E 023°38'0 0.0
2014-Nov-11 03:33N 37°57' E 023°38'0 0.0
2014-Nov-11 02:32N 37°57' E 023°38'0 0.0
2014-Nov-11 01:31N 37°57' E 023°38'0 0.0
2014-Nov-11 00:32N 37°57' E 023°38'0 0.0
2014-Nov-10 23:31N 37°57' E 023°38'0 0.0
2014-Nov-10 22:33N 37°57' E 023°38'  
Track history (hours):
 
Tides and Currents Weather Stations Pressure Air Temp Water Temp Dewpoint Dewpoint Depression Visibility Wind Speed Wind Dir Waves Ship Positions

Prevelis

Last reported at 2014-Nov-20 22:31 UTC. Time now 2014-Nov-20 22:54 UTC.
Position N 36°45' E 024°24'.

Length 143 m; draft 5.5 m.

Type: Passenger vessel. MMSI: 239297000.

Date/timePositionNaut miles runAvg speedWind from/ knotsBaromVisibWave heightAir tempDewpointWater temp
2014-Nov-20 22:31N 36°45' E 024°24'6 5.7
2014-Nov-20 21:29N 36°47' E 024°31'1717.9
2014-Nov-20 20:33N 36°38' E 024°48'1717.5
2014-Nov-20 19:34N 36°28' E 025°07'1615.8
2014-Nov-20 18:34N 36°23' E 025°25'2 1.7
2014-Nov-20 17:33N 36°23' E 025°23'1211.6
2014-Nov-20 16:33N 36°19' E 025°37'9 9.2
2014-Nov-20 15:33N 36°16' E 025°48'1717.1
2014-Nov-20 14:33N 36°04' E 026°02'6 0.2
2014-Nov-19 08:27N 36°01' E 026°08'1617.7
2014-Nov-19 07:33N 36°11' E 025°54'1312.7
2014-Nov-19 06:34N 36°21' E 025°43'1716.9
2014-Nov-19 05:33N 36°20' E 025°22'4 4.2
2014-Nov-19 04:33N 36°23' E 025°26'1110.6
2014-Nov-19 03:33N 36°25' E 025°13'1818.0
2014-Nov-19 02:33N 36°34' E 024°54'1717.3
2014-Nov-19 01:33N 36°44' E 024°36'7 7.2
2014-Nov-19 00:33N 36°43' E 024°27'1110.7
2014-Nov-18 23:33N 36°52' E 024°18'1717.3
2014-Nov-18 22:33N 37°06' E 024°07'2017.3
2014-Nov-18 21:26N 37°23' E 023°55'1917.0
2014-Nov-18 20:19N 37°40' E 023°43'1316.9
2014-Nov-18 19:33N 37°52' E 023°37'5 5.3
2014-Nov-18 18:33N 37°57' E 023°38'0 0.0
2014-Nov-18 17:33N 37°57' E 023°38'0 0.0
2014-Nov-18 16:33N 37°57' E 023°38'0 0.0
2014-Nov-18 15:33N 37°57' E 023°38'0 0.0
2014-Nov-18 14:33N 37°57' E 023°38'0 0.0
2014-Nov-18 13:33N 37°57' E 023°38'0 0.0
2014-Nov-18 12:33N 37°57' E 023°38'0 0.0
2014-Nov-18 11:33N 37°57' E 023°38'0 0.0
2014-Nov-18 10:33N 37°57' E 023°38'0 0.0
2014-Nov-18 09:33N 37°57' E 023°38'0 0.0
2014-Nov-18 08:33N 37°57' E 023°38'0 0.0
2014-Nov-18 07:33N 37°57' E 023°38'0 0.0
2014-Nov-18 06:33N 37°57' E 023°38'0 0.0
2014-Nov-18 05:33N 37°57' E 023°38'0 0.0
2014-Nov-18 04:33N 37°57' E 023°38'0 0.0
2014-Nov-18 03:33N 37°57' E 023°38'0 0.0
2014-Nov-18 02:33N 37°57' E 023°38'0 0.0
2014-Nov-18 01:33N 37°57' E 023°38'0 0.0
2014-Nov-18 00:33N 37°57' E 023°38'0 0.0
2014-Nov-17 23:33N 37°57' E 023°38'0 0.0
2014-Nov-17 22:33N 37°57' E 023°38'0 0.0
2014-Nov-17 21:33N 37°57' E 023°38'0 0.0
2014-Nov-17 20:33N 37°57' E 023°38'0 0.0
2014-Nov-17 19:33N 37°57' E 023°38'0 0.0
2014-Nov-17 18:33N 37°57' E 023°38'0 0.0
2014-Nov-17 17:33N 37°57' E 023°38'0 0.0
2014-Nov-17 16:33N 37°57' E 023°38'0 0.0
2014-Nov-17 15:33N 37°57' E 023°38'0 0.0
2014-Nov-17 14:33N 37°57' E 023°38'0 0.0
2014-Nov-17 13:33N 37°57' E 023°38'0 0.0
2014-Nov-17 12:33N 37°57' E 023°38'0 0.0
2014-Nov-17 11:33N 37°57' E 023°38'0 0.0
2014-Nov-17 10:33N 37°57' E 023°38'0 0.0
2014-Nov-17 09:33N 37°57' E 023°38'0 0.0
2014-Nov-17 08:33N 37°57' E 023°38'5 4.7
2014-Nov-17 07:34N 37°52' E 023°39'2318.2
2014-Nov-17 06:16N 37°31' E 023°52'3117.9
2014-Nov-17 04:31N 37°04' E 024°11'1718.1
2014-Nov-17 03:33N 36°48' E 024°21'4 3.8
2014-Nov-17 02:33N 36°45' E 024°24'1515.3
2014-Nov-17 01:33N 36°41' E 024°42'1817.8
2014-Nov-17 00:33N 36°31' E 025°00'1717.4
2014-Nov-16 23:33N 36°22' E 025°19'5 5.3
2014-Nov-16 22:33N 36°23' E 025°26'5 4.9
2014-Nov-16 21:33N 36°18' E 025°27'1515.3
2014-Nov-16 20:33N 36°21' E 025°46'1514.8
2014-Nov-16 19:33N 36°07' E 025°38'1717.3
2014-Nov-16 18:33N 35°51' E 025°30'1817.5
2014-Nov-16 17:33N 35°35' E 025°21'16 6.9
2014-Nov-16 15:13N 35°21' E 025°11'26 0.9
2014-Nov-15 10:23N 35°22' E 025°44'24 5.8
2014-Nov-15 06:11N 35°40' E 025°23'1118.0
2014-Nov-15 05:33N 35°50' E 025°29'1818.2
2014-Nov-15 04:33N 36°07' E 025°38'1514.8
2014-Nov-15 03:32N 36°21' E 025°46'1514.9
2014-Nov-15 02:33N 36°19' E 025°28'5 4.6
2014-Nov-15 01:33N 36°23' E 025°26'7 6.6
2014-Nov-15 00:33N 36°23' E 025°18'1818.2
2014-Nov-14 23:33N 36°32' E 024°58'1817.8
2014-Nov-14 22:33N 36°42' E 024°40'1110.9
2014-Nov-14 21:30N 36°43' E 024°25'7 7.1
2014-Nov-14 20:34N 36°49' E 024°21'1817.6
2014-Nov-14 19:33N 37°04' E 024°09'4117.9
2014-Nov-14 17:17N 37°39' E 023°43'1317.5
2014-Nov-14 16:34N 37°51' E 023°37'6 6.2
2014-Nov-14 15:33N 37°57' E 023°38'0 0.0
2014-Nov-14 14:33N 37°57' E 023°38'0 0.0
2014-Nov-14 12:33N 37°57' E 023°38'0 0.0
2014-Nov-14 11:33N 37°57' E 023°38'0 0.0
2014-Nov-14 10:33N 37°57' E 023°38'0 0.0
2014-Nov-14 09:33N 37°57' E 023°38'0 0.0
2014-Nov-14 08:33N 37°57' E 023°38'0 0.0
2014-Nov-14 07:33N 37°57' E 023°38'0 0.0
2014-Nov-14 06:33N 37°57' E 023°38'0 0.0
2014-Nov-14 05:19N 37°57' E 023°38'0 0.0
2014-Nov-14 04:33N 37°57' E 023°38'0 0.2
2014-Nov-14 03:33N 37°57' E 023°38'1414.3
2014-Nov-14 02:33N 37°43' E 023°44'5217.3
2014-Nov-13 23:33N 36°57' E 024°15'1717.0
2014-Nov-13 22:32N 36°43' E 024°26'5 5.1
2014-Nov-13 21:31N 36°47' E 024°31'1717.4
2014-Nov-13 20:32N 36°37' E 024°49'1617.0
2014-Nov-13 19:34N 36°29' E 025°06'1616.0
2014-Nov-13 18:34N 36°23' E 025°25'2 2.3
2014-Nov-13 17:33N 36°23' E 025°22'1313.4
2014-Nov-13 16:33N 36°20' E 025°38'6 6.3
2014-Nov-13 15:33N 36°20' E 025°46'1817.6
2014-Nov-13 14:33N 36°07' E 026°00'1817.9
2014-Nov-13 13:33N 35°54' E 026°16'51 9.8
2014-Nov-13 08:20N 35°33' E 027°14'72 2.9
2014-Nov-12 07:33N 36°09' E 025°57'1514.5
2014-Nov-12 06:32N 36°21' E 025°46'1616.5
2014-Nov-12 05:33N 36°19' E 025°26'4 4.4
2014-Nov-12 04:33N 36°23' E 025°26'7 7.0
2014-Nov-12 03:33N 36°23' E 025°17'1817.8
2014-Nov-12 02:33N 36°33' E 024°58'1717.5
2014-Nov-12 01:33N 36°42' E 024°39'1211.1
2014-Nov-12 00:31N 36°43' E 024°25'8 8.5
2014-Nov-11 23:33N 36°50' E 024°20'1717.4
2014-Nov-11 22:33N 37°05' E 024°08'3617.6
2014-Nov-11 20:30N 37°37' E 023°46'1617.3
2014-Nov-11 19:33N 37°51' E 023°37'6 5.7
2014-Nov-11 18:33N 37°57' E 023°38'0 0.0
2014-Nov-11 17:33N 37°57' E 023°38'0 0.0
2014-Nov-11 16:33N 37°57' E 023°38'0 0.0
2014-Nov-11 15:33N 37°57' E 023°38'0 0.0
2014-Nov-11 14:33N 37°57' E 023°38'0 0.0
2014-Nov-11 13:33N 37°57' E 023°38'0 0.0
2014-Nov-11 12:33N 37°57' E 023°38'0 0.0
2014-Nov-11 11:33N 37°57' E 023°38'0 0.0
2014-Nov-11 10:33N 37°57' E 023°38'0 0.0
2014-Nov-11 09:33N 37°57' E 023°38'0 0.0
2014-Nov-11 08:33N 37°57' E 023°38'0 0.0
2014-Nov-11 07:33N 37°57' E 023°38'0 0.0
2014-Nov-11 06:33N 37°57' E 023°38'0 0.0
2014-Nov-11 05:32N 37°57' E 023°38'0 0.0
2014-Nov-11 04:33N 37°57' E 023°38'0 0.0
2014-Nov-11 03:33N 37°57' E 023°38'0 0.0
2014-Nov-11 02:32N 37°57' E 023°38'0 0.0
2014-Nov-11 01:31N 37°57' E 023°38'0 0.0
2014-Nov-11 00:32N 37°57' E 023°38'0 0.0
2014-Nov-10 23:31N 37°57' E 023°38'0 0.0
2014-Nov-10 22:33N 37°57' E 023°38'  

Dump ship's entire track history